Time;durP1;ratioP1;P1;durP2;ratioP2;P2;SDS_P1;SDS_P2;PMS_P1;PMS_P2;Temp;Humidity;BMP_temperature;BMP_pressure;BME280_temperature;BME280_humidity;BME280_pressure;Samples;Min_cycle;Max_cycle;Signal;HPM_P1;HPM_P2
2022/08/26 00:02:00;;;;;;;14.87;9.83;;;22.20;1.00;;;;;;6277493;28;20245;-55
2022/08/26 00:05:06;;;;;;;18.60;10.97;;;22.10;1.00;;;;;;6284118;28;20241;-56
2022/08/26 00:08:12;;;;;;;13.60;10.27;;;22.10;1.00;;;;;;6286122;28;20233;-56
2022/08/26 00:11:15;;;;;;;22.97;10.07;;;22.20;1.00;;;;;;6286066;28;20294;-54
2022/08/26 00:14:29;;;;;;;10.43;9.47;;;22.10;1.00;;;;;;6273404;28;20329;-55
2022/08/26 00:17:33;;;;;;;11.27;10.10;;;22.10;1.00;;;;;;6285552;28;20229;-55
2022/08/26 00:20:38;;;;;;;13.53;10.53;;;22.00;1.00;;;;;;6273533;28;21469;-54
2022/08/26 00:23:55;;;;;;;19.33;10.03;;;22.00;1.00;;;;;;6273158;28;20241;-55
2022/08/26 00:26:58;;;;;;;10.37;9.47;;;22.00;1.00;;;;;;6285375;28;20719;-56
2022/08/26 00:30:04;;;;;;;11.43;9.30;;;21.90;1.00;;;;;;6285081;28;20229;-56
2022/08/26 00:33:07;;;;;;;11.53;10.33;;;21.90;1.00;;;;;;6268291;28;20237;-56
2022/08/26 00:36:12;;;;;;;11.90;10.50;;;21.80;1.00;;;;;;6284484;28;20257;-55
2022/08/26 00:39:22;;;;;;;12.73;10.47;;;21.80;1.00;;;;;;6282904;28;20238;-54
2022/08/26 00:42:26;;;;;;;10.73;9.60;;;21.70;1.00;;;;;;6287685;28;20294;-55
2022/08/26 00:45:38;;;;;;;14.93;10.63;;;21.70;1.00;;;;;;6286163;28;20801;-55
2022/08/26 00:48:43;;;;;;;11.93;10.17;;;21.70;1.00;;;;;;6285216;28;20324;-55
2022/08/26 00:51:53;;;;;;;11.53;10.37;;;21.60;1.00;;;;;;6265086;28;20246;-53
2022/08/26 00:55:02;;;;;;;10.20;9.37;;;21.60;1.00;;;;;;6259754;28;20757;-54
2022/08/26 00:58:08;;;;;;;10.03;8.80;;;21.60;1.00;;;;;;6260087;28;20233;-54
2022/08/26 01:01:12;;;;;;;11.17;10.07;;;21.60;1.00;;;;;;6266893;28;20226;-54
2022/08/26 01:04:38;;;;;;;11.03;9.50;;;21.50;1.00;;;;;;6282684;28;20246;-57
2022/08/26 01:07:42;;;;;;;13.73;10.50;;;21.50;1.00;;;;;;6273347;28;20627;-54
2022/08/26 01:10:58;;;;;;;11.00;9.90;;;21.50;1.00;;;;;;6260204;28;20261;-55
2022/08/26 01:14:04;;;;;;;15.27;10.47;;;21.50;1.00;;;;;;6265037;28;20280;-56
2022/08/26 01:17:08;;;;;;;13.20;10.27;;;21.50;1.00;;;;;;6276246;28;20237;-57
2022/08/26 01:20:22;;;;;;;13.83;10.70;;;21.50;1.00;;;;;;6284452;28;20724;-55
2022/08/26 01:23:31;;;;;;;12.17;10.83;;;21.50;1.00;;;;;;6280980;28;20222;-54
2022/08/26 01:26:39;;;;;;;18.10;11.10;;;21.50;1.00;;;;;;6258924;28;20504;-56
2022/08/26 01:29:44;;;;;;;13.00;10.83;;;21.60;1.00;;;;;;6259581;28;20238;-56
2022/08/26 01:32:49;;;;;;;12.63;10.73;;;21.60;1.00;;;;;;6263834;28;20371;-55
2022/08/26 01:35:52;;;;;;;15.33;10.80;;;21.60;1.00;;;;;;6283939;28;20589;-54
2022/08/26 01:38:57;;;;;;;13.33;10.37;;;21.60;1.00;;;;;;6262155;28;20276;-54
2022/08/26 01:42:02;;;;;;;12.80;10.23;;;21.60;1.00;;;;;;6283724;28;20289;-55
2022/08/26 01:45:10;;;;;;;12.57;11.23;;;21.60;1.00;;;;;;6276295;28;20263;-55
2022/08/26 01:48:17;;;;;;;14.77;10.37;;;21.60;1.00;;;;;;6283169;28;20308;-55
2022/08/26 01:51:28;;;;;;;15.67;10.93;;;21.60;1.00;;;;;;6282518;28;20302;-55
2022/08/26 01:54:33;;;;;;;20.03;12.00;;;21.60;1.00;;;;;;6261874;28;20313;-56
2022/08/26 01:57:36;;;;;;;14.03;10.97;;;21.60;1.00;;;;;;6258223;28;20272;-54
2022/08/26 02:00:40;;;;;;;12.40;10.87;;;21.50;1.00;;;;;;6257944;28;20707;-55
2022/08/26 02:03:56;;;;;;;14.23;11.37;;;21.50;1.00;;;;;;6271256;28;20281;-54
2022/08/26 02:07:02;;;;;;;12.47;10.70;;;21.50;1.00;;;;;;6281719;28;20292;-54
2022/08/26 02:10:08;;;;;;;13.87;10.23;;;21.50;1.00;;;;;;6267490;28;20781;-55
2022/08/26 02:13:12;;;;;;;12.07;10.03;;;21.40;1.00;;;;;;6274396;28;20235;-56
2022/08/26 02:16:17;;;;;;;13.33;11.43;;;21.40;1.00;;;;;;6281229;28;20232;-55
2022/08/26 02:19:23;;;;;;;11.20;10.17;;;21.30;1.00;;;;;;6276258;28;20249;-54
2022/08/26 02:22:28;;;;;;;11.97;10.83;;;21.30;1.00;;;;;;6259447;28;20230;-55
2022/08/26 02:25:38;;;;;;;12.07;10.67;;;21.30;1.00;;;;;;6259078;28;20317;-55
2022/08/26 02:28:48;;;;;;;11.97;10.73;;;21.30;1.00;;;;;;6258219;28;20291;-56
2022/08/26 02:31:52;;;;;;;13.23;11.97;;;21.20;1.00;;;;;;6256134;28;20248;-55
2022/08/26 02:34:56;;;;;;;12.83;11.53;;;21.20;1.00;;;;;;6279970;28;20255;-54
2022/08/26 02:38:01;;;;;;;12.93;11.60;;;21.20;1.00;;;;;;6282796;28;20249;-54
2022/08/26 02:41:13;;;;;;;12.30;11.13;;;21.20;1.00;;;;;;6267859;28;20324;-55
2022/08/26 02:44:16;;;;;;;12.53;11.30;;;21.10;1.00;;;;;;6265073;28;20328;-54
2022/08/26 02:47:19;;;;;;;12.47;11.37;;;21.10;1.00;;;;;;6283117;28;20243;-56
2022/08/26 02:50:27;;;;;;;12.00;10.83;;;21.10;1.00;;;;;;6264586;28;20245;-55
2022/08/26 02:53:42;;;;;;;11.40;10.30;;;21.10;1.00;;;;;;6282654;28;20237;-55
2022/08/26 02:56:47;;;;;;;12.40;11.20;;;21.00;1.00;;;;;;6282347;28;20303;-54
2022/08/26 02:59:50;;;;;;;11.73;10.73;;;21.10;1.00;;;;;;6265669;28;20323;-54
2022/08/26 03:02:53;;;;;;;12.03;10.93;;;21.10;1.00;;;;;;6264685;28;20241;-56
2022/08/26 03:05:56;;;;;;;13.23;11.17;;;21.00;1.00;;;;;;6287408;28;20237;-55
2022/08/26 03:08:59;;;;;;;12.00;11.00;;;21.00;1.00;;;;;;6263199;28;20252;-54
2022/08/26 03:12:04;;;;;;;15.17;12.47;;;21.10;1.00;;;;;;6262283;28;20625;-56
2022/08/26 03:15:10;;;;;;;13.30;11.40;;;21.10;1.00;;;;;;6261372;28;20225;-56
2022/08/26 03:18:19;;;;;;;15.43;11.93;;;21.10;1.00;;;;;;6286314;28;20236;-54
2022/08/26 03:21:22;;;;;;;12.43;11.00;;;21.10;1.00;;;;;;6286210;28;20335;-54
2022/08/26 03:24:27;;;;;;;13.00;11.17;;;21.10;1.00;;;;;;6279334;28;20234;-54
2022/08/26 03:27:32;;;;;;;12.87;11.13;;;21.10;1.00;;;;;;6285722;28;20757;-55
2022/08/26 03:30:40;;;;;;;14.93;11.17;;;21.10;1.00;;;;;;6286314;28;20284;-55
2022/08/26 03:33:47;;;;;;;14.10;11.13;;;21.20;1.00;;;;;;6269842;28;20374;-54
2022/08/26 03:36:51;;;;;;;12.40;11.33;;;21.20;1.00;;;;;;6278297;28;20317;-55
2022/08/26 03:39:57;;;;;;;14.77;11.83;;;21.30;1.00;;;;;;6286325;28;20386;-54
2022/08/26 03:43:03;;;;;;;17.80;12.70;;;21.30;1.00;;;;;;6284544;28;20300;-55
2022/08/26 03:46:10;;;;;;;16.10;12.90;;;21.30;1.00;;;;;;6285769;28;20634;-54
2022/08/26 03:49:13;;;;;;;12.93;11.13;;;21.30;1.00;;;;;;6284314;28;20241;-56
2022/08/26 03:52:19;;;;;;;13.37;11.80;;;21.30;1.00;;;;;;6281239;28;20248;-55
2022/08/26 03:55:25;;;;;;;13.30;11.30;;;21.30;1.00;;;;;;6285977;28;20774;-55
2022/08/26 03:58:30;;;;;;;11.90;10.63;;;21.30;1.00;;;;;;6282842;28;20613;-55
2022/08/26 04:01:33;;;;;;;14.00;11.77;;;21.30;1.00;;;;;;6276980;28;20225;-55
2022/08/26 04:04:37;;;;;;;16.27;11.90;;;21.20;1.00;;;;;;6284258;28;20716;-55
2022/08/26 04:07:40;;;;;;;17.70;12.03;;;21.30;1.00;;;;;;6279905;28;20240;-55
2022/08/26 04:10:43;;;;;;;17.07;13.00;;;21.20;1.00;;;;;;6279450;28;20366;-55
2022/08/26 04:13:48;;;;;;;18.63;13.50;;;21.30;1.00;;;;;;6278855;28;20244;-56
2022/08/26 04:16:53;;;;;;;25.63;14.63;;;21.30;1.00;;;;;;6278722;28;20611;-55
2022/08/26 04:19:57;;;;;;;14.33;12.57;;;21.30;1.00;;;;;;6284084;28;20261;-56
2022/08/26 04:23:00;;;;;;;16.67;12.70;;;21.30;1.00;;;;;;6285510;28;20312;-55
2022/08/26 04:26:04;;;;;;;15.33;13.20;;;21.20;1.00;;;;;;6270890;28;20241;-54
2022/08/26 04:29:17;;;;;;;18.87;13.00;;;21.30;1.00;;;;;;6282146;28;20231;-56
2022/08/26 04:32:20;;;;;;;18.23;13.30;;;21.20;1.00;;;;;;6283986;28;20609;-56
2022/08/26 04:35:23;;;;;;;18.87;13.77;;;21.20;1.00;;;;;;6280953;28;20343;-55
2022/08/26 04:38:29;;;;;;;15.47;12.63;;;21.30;1.00;;;;;;6284492;28;20636;-54
2022/08/26 04:41:32;;;;;;;16.60;12.83;;;21.30;1.00;;;;;;6283877;28;20320;-61
2022/08/26 04:44:40;;;;;;;27.80;15.33;;;21.30;1.00;;;;;;6284246;28;20233;-56
2022/08/26 04:47:44;;;;;;;19.13;14.20;;;21.40;1.00;;;;;;6281196;28;20234;-57
2022/08/26 04:50:56;;;;;;;25.87;15.33;;;21.40;1.00;;;;;;6284241;28;20387;-54
2022/08/26 04:54:01;;;;;;;17.87;13.80;;;21.50;1.00;;;;;;6283762;28;20241;-55
2022/08/26 04:57:04;;;;;;;20.53;13.93;;;21.40;1.00;;;;;;6284741;28;20249;-55
2022/08/26 05:00:11;;;;;;;16.33;13.90;;;21.50;1.00;;;;;;6283381;28;20237;-55
2022/08/26 05:03:14;;;;;;;18.57;14.37;;;21.50;1.00;;;;;;6277394;28;20249;-55
2022/08/26 05:06:18;;;;;;;27.07;16.40;;;21.60;1.00;;;;;;6285005;28;20241;-55
2022/08/26 05:09:21;;;;;;;23.60;15.10;;;21.60;1.00;;;;;;6283108;28;20251;-55
2022/08/26 05:12:24;;;;;;;17.47;13.67;;;21.60;1.00;;;;;;6281858;28;20249;-55
2022/08/26 05:15:28;;;;;;;16.17;12.90;;;21.70;1.00;;;;;;6283368;28;20352;-58
2022/08/26 05:18:32;;;;;;;19.97;13.30;;;21.80;1.00;;;;;;6281419;28;20233;-55
2022/08/26 05:21:37;;;;;;;18.30;13.53;;;21.80;1.00;;;;;;6283262;28;20241;-55
2022/08/26 05:24:40;;;;;;;19.57;13.53;;;21.90;1.00;;;;;;6282665;28;20225;-57
2022/08/26 05:27:43;;;;;;;24.77;15.40;;;22.00;1.00;;;;;;6274970;28;20702;-56
2022/08/26 05:30:49;;;;;;;19.83;15.20;;;22.00;1.00;;;;;;6280042;28;20305;-55
2022/08/26 05:34:00;;;;;;;21.47;14.43;;;22.10;1.00;;;;;;6282841;28;20610;-55
2022/08/26 05:37:06;;;;;;;23.90;14.80;;;22.30;1.00;;;;;;6274243;28;20641;-55
2022/08/26 05:40:12;;;;;;;21.43;15.03;;;22.40;1.00;;;;;;6281720;28;20241;-55
2022/08/26 05:43:16;;;;;;;16.07;13.70;;;22.50;1.00;;;;;;6282601;28;20237;-57
2022/08/26 05:46:23;;;;;;;18.37;13.17;;;22.70;1.00;;;;;;6282502;28;20241;-57
2022/08/26 05:49:28;;;;;;;17.77;14.70;;;22.80;1.00;;;;;;6273967;28;20747;-55
2022/08/26 05:52:31;;;;;;;23.80;13.40;;;22.90;1.00;;;;;;6280845;28;20241;-55
2022/08/26 05:55:35;;;;;;;18.87;12.90;;;23.00;1.00;;;;;;6282635;28;20253;-54
2022/08/26 05:58:44;;;;;;;25.87;14.07;;;23.10;1.00;;;;;;6280367;28;20363;-54
2022/08/26 06:01:49;;;;;;;26.77;14.70;;;23.20;1.00;;;;;;6274166;28;20377;-56
2022/08/26 06:04:52;;;;;;;25.90;13.47;;;23.20;1.00;;;;;;6280457;28;20264;-57
2022/08/26 06:08:13;;;;;;;21.67;12.23;;;23.30;1.00;;;;;;6283046;28;20276;-55
2022/08/26 06:11:20;;;;;;;29.97;14.60;;;23.40;1.00;;;;;;6269302;28;20226;-55
2022/08/26 06:14:26;;;;;;;17.33;12.93;;;23.50;1.00;;;;;;6277383;28;20376;-55
2022/08/26 06:17:31;;;;;;;25.67;13.80;;;23.70;1.00;;;;;;6282725;28;20363;-55
2022/08/26 06:20:35;;;;;;;25.97;13.47;;;23.80;1.00;;;;;;6281104;28;20237;-55
2022/08/26 06:27:07;;;;;;;25.50;14.03;;;24.00;1.00;;;;;;6268198;28;20229;-55
2022/08/26 06:30:11;;;;;;;26.50;15.17;;;24.20;1.00;;;;;;6281934;28;20233;-56
2022/08/26 06:33:15;;;;;;;24.60;13.53;;;24.40;1.00;;;;;;6277481;28;20229;-55
2022/08/26 06:36:21;;;;;;;20.80;14.33;;;24.50;1.00;;;;;;6282132;28;20287;-54
2022/08/26 06:39:25;;;;;;;21.73;12.83;;;24.60;1.00;;;;;;6285873;28;20237;-56
2022/08/26 06:42:33;;;;;;;20.50;11.77;;;24.70;1.00;;;;;;6279489;28;20867;-55
2022/08/26 06:45:37;;;;;;;25.00;14.53;;;24.80;1.00;;;;;;6286444;28;20243;-55
2022/08/26 06:48:41;;;;;;;21.07;13.33;;;24.90;1.00;;;;;;6287528;28;20233;-56
2022/08/26 06:51:45;;;;;;;23.33;11.97;;;24.90;1.00;;;;;;6279908;28;20303;-54
2022/08/26 06:54:50;;;;;;;22.80;15.20;;;25.00;1.00;;;;;;6279034;28;20856;-56
2022/08/26 06:57:55;;;;;;;20.10;12.53;;;25.00;1.00;;;;;;6287889;28;20488;-54
2022/08/26 07:00:58;;;;;;;24.50;13.63;;;25.10;1.00;;;;;;6282983;28;20226;-58
2022/08/26 07:04:16;;;;;;;23.80;13.70;;;25.10;1.00;;;;;;6286147;28;20221;-55
2022/08/26 07:07:24;;;;;;;31.00;13.00;;;25.20;1.00;;;;;;6286989;28;20314;-53
2022/08/26 07:10:30;;;;;;;21.40;13.07;;;25.30;1.00;;;;;;6285616;28;20543;-57
2022/08/26 07:13:35;;;;;;;19.30;12.47;;;25.30;1.00;;;;;;6284422;28;20245;-56
2022/08/26 07:16:40;;;;;;;29.27;13.53;;;25.30;1.00;;;;;;6286786;28;20246;-56
2022/08/26 07:19:44;;;;;;;24.63;12.30;;;25.40;1.00;;;;;;6281861;28;20241;-55
2022/08/26 07:22:47;;;;;;;26.37;14.23;;;25.40;1.00;;;;;;6287212;28;20287;-55
2022/08/26 07:25:51;;;;;;;23.07;12.47;;;25.50;1.00;;;;;;6286048;28;20294;-56
2022/08/26 07:28:56;;;;;;;21.63;12.50;;;25.50;1.00;;;;;;6284439;28;20281;-56
2022/08/26 07:32:01;;;;;;;21.83;12.07;;;25.60;1.00;;;;;;6280572;28;20383;-55
2022/08/26 07:35:09;;;;;;;28.17;12.20;;;25.60;1.00;;;;;;6284797;28;20379;-55
2022/08/26 07:38:16;;;;;;;20.93;11.07;;;25.60;1.00;;;;;;6286013;28;20230;-54
2022/08/26 07:41:22;;;;;;;26.53;12.03;;;25.70;1.00;;;;;;6281581;28;20226;-56
2022/08/26 07:44:26;;;;;;;26.80;13.17;;;25.70;1.00;;;;;;6283780;28;20306;-55
2022/08/26 07:47:29;;;;;;;21.07;10.87;;;25.90;1.00;;;;;;6284855;28;20247;-55
2022/08/26 07:50:34;;;;;;;22.10;12.00;;;26.00;1.00;;;;;;6280955;28;20688;-55
2022/08/26 07:54:01;;;;;;;27.07;12.00;;;26.10;1.00;;;;;;6283128;28;20371;-55
2022/08/26 07:57:06;;;;;;;27.43;13.13;;;26.20;1.00;;;;;;6284297;28;20719;-56
2022/08/26 08:00:15;;;;;;;17.93;11.80;;;26.40;1.00;;;;;;6283333;28;20467;-57
2022/08/26 08:03:20;;;;;;;21.30;10.97;;;26.50;1.00;;;;;;6285986;28;20418;-56
2022/08/26 08:06:26;;;;;;;21.23;10.90;;;26.60;1.00;;;;;;6284417;28;20244;-55
2022/08/26 08:09:36;;;;;;;21.53;11.63;;;26.60;1.00;;;;;;6277510;28;20693;-56
2022/08/26 08:12:42;;;;;;;27.80;11.77;;;26.60;1.00;;;;;;6284890;28;20232;-57
2022/08/26 08:15:46;;;;;;;24.33;10.80;;;26.80;1.00;;;;;;6278267;28;20360;-54
2022/08/26 08:18:52;;;;;;;24.23;10.80;;;26.90;1.00;;;;;;6281548;28;20283;-55
2022/08/26 08:21:56;;;;;;;19.90;10.33;;;27.00;1.00;;;;;;6285846;28;20392;-56
2022/08/26 08:25:01;;;;;;;20.30;10.53;;;27.20;1.00;;;;;;6280315;28;20682;-56
2022/08/26 08:28:08;;;;;;;30.53;12.10;;;27.40;1.00;;;;;;6284764;28;20783;-55
2022/08/26 08:31:19;;;;;;;18.47;10.00;;;27.50;1.00;;;;;;6280416;28;20237;-59
2022/08/26 08:34:41;;;;;;;18.10;9.60;;;27.60;1.00;;;;;;6284475;28;20245;-55
2022/08/26 08:37:53;;;;;;;16.63;9.67;;;27.70;1.00;;;;;;6284592;28;20295;-55
2022/08/26 08:40:56;;;;;;;20.57;8.80;;;27.70;1.00;;;;;;6282835;28;20233;-56
2022/08/26 08:44:02;;;;;;;17.03;9.77;;;27.70;1.00;;;;;;6281001;28;20240;-56
2022/08/26 08:47:14;;;;;;;23.70;10.87;;;27.70;1.00;;;;;;6275492;28;20321;-56
2022/08/26 08:50:25;;;;;;;23.27;9.77;;;27.80;1.00;;;;;;6281677;28;20240;-57
2022/08/26 08:53:34;;;;;;;21.03;10.23;;;27.70;1.00;;;;;;6282075;28;20542;-55
2022/08/26 08:56:51;;;;;;;33.33;11.70;;;27.70;1.00;;;;;;6282163;28;20320;-58
2022/08/26 09:00:02;;;;;;;17.13;9.10;;;27.70;1.00;;;;;;6275742;28;20363;-56
2022/08/26 09:03:15;;;;;;;25.07;9.70;;;27.70;1.00;;;;;;6278817;28;20244;-57
2022/08/26 09:06:19;;;;;;;24.50;9.73;;;27.80;1.00;;;;;;6277906;28;20282;-56
2022/08/26 09:09:29;;;;;;;31.40;10.70;;;27.90;1.00;;;;;;6282570;28;20330;-55
2022/08/26 09:12:34;;;;;;;20.43;10.97;;;28.00;1.00;;;;;;6284501;28;20758;-56
2022/08/26 09:15:48;;;;;;;18.13;8.87;;;28.20;1.00;;;;;;6282630;28;20241;-56
2022/08/26 09:19:02;;;;;;;23.30;9.30;;;28.50;1.00;;;;;;6276220;28;20241;-56
2022/08/26 09:22:05;;;;;;;26.20;10.00;;;28.60;1.00;;;;;;6283207;28;20514;-55
2022/08/26 09:25:14;;;;;;;26.40;8.40;;;28.70;1.00;;;;;;6278109;28;20495;-55
2022/08/26 09:28:20;;;;;;;17.67;8.37;;;28.80;1.00;;;;;;6284351;28;20275;-55
2022/08/26 09:31:24;;;;;;;17.67;8.10;;;28.90;1.00;;;;;;6282525;28;20248;-56
2022/08/26 09:34:29;;;;;;;26.23;8.20;;;29.20;1.00;;;;;;6281902;28;20244;-55
2022/08/26 09:37:36;;;;;;;27.27;8.15;;;29.30;1.00;;;;;;6274902;28;20794;-55
2022/08/26 09:40:56;;;;;;;22.08;8.85;;;29.30;1.00;;;;;;6279590;28;20457;-56
2022/08/26 09:44:14;;;;;;;19.65;8.50;;;29.40;1.00;;;;;;6278762;28;20225;-56
2022/08/26 09:47:25;;;;;;;18.60;7.95;;;29.40;1.00;;;;;;6283095;28;20580;-56
2022/08/26 09:50:30;;;;;;;20.92;8.77;;;29.50;1.00;;;;;;6281570;28;20320;-57
2022/08/26 09:53:36;;;;;;;25.77;8.48;;;29.70;1.00;;;;;;6283964;28;20513;-56
2022/08/26 09:56:40;;;;;;;22.23;9.35;;;29.90;1.00;;;;;;6282919;28;20233;-57
2022/08/26 09:59:43;;;;;;;20.00;8.13;;;29.90;1.00;;;;;;6279656;28;20701;-55
2022/08/26 10:02:48;;;;;;;24.90;8.57;;;30.10;1.00;;;;;;6277716;28;20249;-55
2022/08/26 10:05:58;;;;;;;15.02;7.03;;;30.30;1.00;;;;;;6277591;28;20234;-56
2022/08/26 10:09:02;;;;;;;23.17;8.45;;;30.40;1.00;;;;;;6282871;28;20326;-56
2022/08/26 10:12:16;;;;;;;32.05;9.50;;;30.30;1.00;;;;;;6282147;28;20221;-56
2022/08/26 10:15:20;;;;;;;24.00;8.90;;;30.40;1.00;;;;;;6283387;28;20748;-56
2022/08/26 10:18:28;;;;;;;25.13;8.23;;;30.30;1.00;;;;;;6281502;28;20244;-56
2022/08/26 10:21:42;;;;;;;25.98;9.57;;;30.30;1.00;;;;;;6282082;28;20279;-56
2022/08/26 10:24:48;;;;;;;22.48;8.35;;;30.30;1.00;;;;;;6283747;28;20233;-56
2022/08/26 10:28:04;;;;;;;29.85;8.38;;;30.20;1.00;;;;;;6283215;28;20245;-56
2022/08/26 10:31:21;;;;;;;25.20;8.50;;;30.30;1.00;;;;;;6277471;28;20229;-57
2022/08/26 10:34:31;;;;;;;27.92;8.43;;;30.40;1.00;;;;;;6282438;28;20240;-56
2022/08/26 10:37:37;;;;;;;22.67;7.70;;;30.40;1.00;;;;;;6282991;28;20299;-56
2022/08/26 10:40:55;;;;;;;20.83;8.20;;;30.40;1.00;;;;;;6278097;28;20278;-55
2022/08/26 10:44:05;;;;;;;26.75;8.82;;;30.60;1.00;;;;;;6277410;28;20779;-56
2022/08/26 10:47:14;;;;;;;24.20;8.52;;;30.60;1.00;;;;;;6276988;28;20318;-56
2022/08/26 10:50:20;;;;;;;22.20;8.43;;;30.80;1.00;;;;;;6281569;28;20244;-56
2022/08/26 10:53:34;;;;;;;25.85;8.18;;;30.60;1.00;;;;;;6255378;28;20316;-56
2022/08/26 10:56:46;;;;;;;25.58;9.00;;;30.60;1.00;;;;;;6275124;28;20710;-56
2022/08/26 10:59:55;;;;;;;17.23;7.93;;;30.40;1.00;;;;;;6280371;28;20333;-56
2022/08/26 11:03:04;;;;;;;32.13;9.13;;;30.30;1.00;;;;;;6277211;28;20243;-56
2022/08/26 11:06:26;;;;;;;22.70;8.20;;;30.40;1.00;;;;;;6276913;28;20233;-56
2022/08/26 11:09:47;;;;;;;24.13;8.93;;;30.60;1.00;;;;;;6282118;28;20828;-56
2022/08/26 11:12:58;;;;;;;28.17;8.88;;;30.60;1.00;;;;;;6273906;28;20278;-56
2022/08/26 11:16:02;;;;;;;23.85;8.85;;;30.60;1.00;;;;;;6277533;28;20244;-57
2022/08/26 11:19:09;;;;;;;24.30;9.60;;;30.60;1.00;;;;;;6280619;28;20658;-56
2022/08/26 11:22:26;;;;;;;15.95;8.75;;;30.40;1.00;;;;;;6274452;28;20249;-56
2022/08/26 11:25:28;;;;;;;22.25;9.15;;;30.30;1.00;;;;;;6284071;28;20497;-55
2022/08/26 11:28:35;;;;;;;23.90;8.85;;;30.20;1.00;;;;;;6286073;28;20630;-55
2022/08/26 11:31:56;;;;;;;20.40;9.38;;;30.10;1.00;;;;;;6283721;28;20306;-57
2022/08/26 11:35:02;;;;;;;27.30;9.60;;;30.00;1.00;;;;;;6284579;28;20659;-55
2022/08/26 11:38:18;;;;;;;29.88;9.63;;;30.00;1.00;;;;;;6278513;28;20240;-56
2022/08/26 11:41:27;;;;;;;20.00;9.45;;;29.80;1.00;;;;;;6281951;28;20877;-55
2022/08/26 11:44:39;;;;;;;19.25;9.05;;;29.80;1.00;;;;;;6283623;28;20308;-53
2022/08/26 11:47:45;;;;;;;18.00;8.85;;;29.80;1.00;;;;;;6283629;28;20233;-56
2022/08/26 11:50:53;;;;;;;26.73;9.40;;;29.80;1.00;;;;;;6285872;28;20244;-56
2022/08/26 11:54:10;;;;;;;26.25;9.93;;;29.80;1.00;;;;;;6284974;28;20241;-56
2022/08/26 11:57:20;;;;;;;33.75;9.35;;;29.70;1.00;;;;;;6283706;28;20331;-55
2022/08/26 12:00:26;;;;;;;19.77;9.57;;;29.50;1.00;;;;;;6285304;28;20651;-56
2022/08/26 12:03:41;;;;;;;22.30;9.27;;;29.30;1.00;;;;;;6284255;28;20324;-55
2022/08/26 12:06:48;;;;;;;15.30;5.20;;;29.10;1.00;;;;;;6285461;28;20234;-56
2022/08/26 12:09:56;;;;;;;16.30;5.80;;;28.50;1.00;;;;;;6277284;28;20382;-57
2022/08/26 12:13:03;;;;;;;12.57;5.60;;;27.80;1.00;;;;;;6279331;28;20680;-55
2022/08/26 12:16:07;;;;;;;14.20;5.40;;;27.00;1.00;;;;;;6285988;28;20370;-56
2022/08/26 12:19:29;;;;;;;6.57;5.37;;;26.50;1.00;;;;;;6284331;28;20241;-55
2022/08/26 12:22:37;;;;;;;11.17;5.80;;;26.10;1.00;;;;;;6285253;28;20670;-57
2022/08/26 12:25:46;;;;;;;10.20;6.43;;;25.60;1.00;;;;;;6283916;28;20260;-56
2022/08/26 12:28:53;;;;;;;7.47;6.03;;;25.20;1.00;;;;;;6284474;28;20557;-56
2022/08/26 12:32:09;;;;;;;8.20;6.37;;;24.80;1.00;;;;;;6285423;28;20235;-57
2022/08/26 12:35:17;;;;;;;11.53;6.77;;;24.50;1.00;;;;;;6281823;28;20256;-56
2022/08/26 12:38:20;;;;;;;11.40;6.60;;;24.20;1.00;;;;;;6283515;28;20709;-56
2022/08/26 12:41:49;;;;;;;7.60;6.30;;;23.90;1.00;;;;;;6275182;28;20342;-56
2022/08/26 12:45:00;;;;;;;10.43;6.27;;;23.70;1.00;;;;;;6271430;28;20233;-54
2022/08/26 12:48:08;;;;;;;11.13;7.00;;;23.50;1.00;;;;;;6283928;28;20283;-58
2022/08/26 12:51:22;;;;;;;9.50;6.07;;;23.30;1.00;;;;;;6279795;28;20291;-54
2022/08/26 12:54:57;;;;;;;7.13;5.93;;;23.10;1.00;;;;;;6283682;28;20229;-54
2022/08/26 12:57:50;;;;;;;10.20;6.93;;;23.00;1.00;;;;;;6276127;28;20500;-53
2022/08/26 13:00:54;;;;;;;7.07;6.33;;;22.80;1.00;;;;;;6266829;28;20659;-55
2022/08/26 13:03:57;;;;;;;11.57;7.33;;;22.70;1.00;;;;;;6284629;28;20322;-60
2022/08/26 13:07:22;;;;;;;12.87;7.20;;;22.60;1.00;;;;;;6276706;28;20233;-55
2022/08/26 13:10:35;;;;;;;8.80;7.67;;;22.50;1.00;;;;;;6281551;28;20241;-54
2022/08/26 13:13:38;;;;;;;8.50;7.60;;;22.40;1.00;;;;;;6284295;28;20243;-53
2022/08/26 13:16:41;;;;;;;12.07;7.97;;;22.30;1.00;;;;;;6280783;28;20306;-53
2022/08/26 13:19:45;;;;;;;9.93;8.17;;;22.20;1.00;;;;;;6283443;28;20241;-54
2022/08/26 13:22:50;;;;;;;11.63;8.10;;;22.20;1.00;;;;;;6284651;28;20248;-54
2022/08/26 13:26:02;;;;;;;13.10;8.30;;;22.10;1.00;;;;;;6269193;28;20246;-55
2022/08/26 13:29:06;;;;;;;12.67;8.77;;;22.10;1.00;;;;;;6284710;28;20734;-53
2022/08/26 13:32:12;;;;;;;11.63;8.63;;;22.00;1.00;;;;;;6278234;28;20237;-54
2022/08/26 13:35:15;;;;;;;10.63;8.50;;;22.10;1.00;;;;;;6280537;28;20334;-54
2022/08/26 13:38:19;;;;;;;9.70;8.67;;;22.00;1.00;;;;;;6284479;28;20233;-56
2022/08/26 13:41:35;;;;;;;10.50;8.67;;;21.90;1.00;;;;;;6277777;28;20253;-55
2022/08/26 13:44:39;;;;;;;13.20;9.00;;;21.90;1.00;;;;;;6284936;28;20733;-55
2022/08/26 13:47:42;;;;;;;9.70;8.10;;;21.70;1.00;;;;;;6283940;28;20597;-54
2022/08/26 13:50:47;;;;;;;9.60;8.60;;;21.70;1.00;;;;;;6278405;28;20257;-55
2022/08/26 13:53:51;;;;;;;11.03;8.73;;;21.60;1.00;;;;;;6283329;28;20630;-54
2022/08/26 13:56:54;;;;;;;9.77;8.97;;;21.60;1.00;;;;;;6275998;28;20237;-56
2022/08/26 13:59:58;;;;;;;10.43;8.90;;;21.60;1.00;;;;;;6284529;28;20245;-54
2022/08/26 14:03:01;;;;;;;11.43;8.17;;;21.50;1.00;;;;;;6277745;28;20233;-54
2022/08/26 14:06:05;;;;;;;8.87;8.17;;;21.50;1.00;;;;;;6273926;28;20394;-55
2022/08/26 14:09:09;;;;;;;9.53;8.53;;;21.50;1.00;;;;;;6282715;28;20934;-54
2022/08/26 14:12:13;;;;;;;9.33;7.97;;;21.60;1.00;;;;;;6276707;28;20484;-56
2022/08/26 14:15:17;;;;;;;8.97;8.20;;;21.60;1.00;;;;;;6278575;28;20236;-55
2022/08/26 14:18:28;;;;;;;8.37;7.70;;;21.60;1.00;;;;;;6283277;28;20240;-54
2022/08/26 14:21:33;;;;;;;8.53;7.83;;;21.60;1.00;;;;;;6282254;28;20729;-54
2022/08/26 14:24:37;;;;;;;8.77;8.07;;;21.60;1.00;;;;;;6279254;28;20245;-54
2022/08/26 14:27:41;;;;;;;9.73;8.70;;;21.60;1.00;;;;;;6282721;28;20641;-54
2022/08/26 14:30:47;;;;;;;11.37;9.93;;;21.50;1.00;;;;;;6279181;28;20249;-60
2022/08/26 14:33:50;;;;;;;10.73;9.17;;;21.50;1.00;;;;;;6282982;28;20239;-59
2022/08/26 14:36:53;;;;;;;10.37;9.20;;;21.40;1.00;;;;;;6282254;28;20240;-55
2022/08/26 14:39:57;;;;;;;9.10;7.93;;;21.40;1.00;;;;;;6275610;28;20866;-55
2022/08/26 14:43:06;;;;;;;9.23;8.30;;;21.40;1.00;;;;;;6275011;28;20291;-54
2022/08/26 14:46:09;;;;;;;9.97;7.90;;;21.40;1.00;;;;;;6283989;28;20706;-55
2022/08/26 14:49:12;;;;;;;11.40;7.93;;;21.40;1.00;;;;;;6280603;28;20234;-54
2022/08/26 14:52:15;;;;;;;8.33;7.63;;;21.40;1.00;;;;;;6283511;28;20244;-54
2022/08/26 14:55:22;;;;;;;8.33;7.63;;;21.40;1.00;;;;;;6282300;28;20256;-53
2022/08/26 14:58:25;;;;;;;7.93;7.43;;;21.40;1.00;;;;;;6280905;28;20286;-53
2022/08/26 15:01:36;;;;;;;9.00;8.10;;;21.40;1.00;;;;;;6287220;28;20334;-54
2022/08/26 15:04:41;;;;;;;7.80;7.10;;;21.40;1.00;;;;;;6286879;28;20241;-54
2022/08/26 15:07:44;;;;;;;13.80;9.00;;;21.20;1.00;;;;;;6286057;28;20388;-54
2022/08/26 15:10:49;;;;;;;7.30;6.70;;;21.20;1.00;;;;;;6286907;28;20236;-55
2022/08/26 15:13:52;;;;;;;12.37;7.60;;;21.10;1.00;;;;;;6288629;28;20310;-55
2022/08/26 15:16:56;;;;;;;8.27;7.50;;;21.00;1.00;;;;;;6278846;28;20230;-55
2022/08/26 15:19:59;;;;;;;8.73;8.10;;;20.90;1.00;;;;;;6280764;28;20676;-55
2022/08/26 15:23:05;;;;;;;9.83;8.83;;;20.80;1.00;;;;;;6287477;28;20357;-53
2022/08/26 15:26:11;;;;;;;11.20;9.67;;;20.70;1.00;;;;;;6285307;28;20496;-56
2022/08/26 15:29:14;;;;;;;9.87;8.47;;;20.80;1.00;;;;;;6283659;28;20359;-55
2022/08/26 15:32:18;;;;;;;10.37;9.57;;;20.80;1.00;;;;;;6263692;28;20253;-56
2022/08/26 15:35:21;;;;;;;10.47;9.47;;;20.80;1.00;;;;;;6276029;28;20323;-56
2022/08/26 15:38:24;;;;;;;9.93;9.03;;;20.80;1.00;;;;;;6284993;28;20527;-55
2022/08/26 15:41:29;;;;;;;10.07;9.27;;;20.90;1.00;;;;;;6276534;28;20318;-56
2022/08/26 15:44:37;;;;;;;9.30;8.40;;;20.90;1.00;;;;;;6282688;28;20249;-55
2022/08/26 15:47:39;;;;;;;9.07;8.27;;;20.90;1.00;;;;;;6285738;28;20276;-56
2022/08/26 15:51:03;;;;;;;12.30;9.47;;;20.80;1.00;;;;;;6277492;28;20758;-55
2022/08/26 15:54:07;;;;;;;10.83;9.80;;;20.80;1.00;;;;;;6287707;28;20329;-56
2022/08/26 15:57:13;;;;;;;11.73;10.00;;;20.80;1.00;;;;;;6287012;28;20235;-56
2022/08/26 16:00:21;;;;;;;9.83;8.87;;;20.80;1.00;;;;;;6285522;28;20249;-57
2022/08/26 16:03:25;;;;;;;10.23;9.20;;;20.80;1.00;;;;;;6285380;28;20247;-57
2022/08/26 16:06:32;;;;;;;9.97;9.17;;;20.80;1.00;;;;;;6284286;28;20256;-56
2022/08/26 16:09:34;;;;;;;13.60;12.20;;;20.80;1.00;;;;;;6283423;28;20257;-55
2022/08/26 16:12:45;;;;;;;10.90;9.90;;;20.70;1.00;;;;;;6281484;28;20419;-56